createdAt,value
2019-04-10T00:01:51.768Z,38.48
2019-04-10T00:07:06.970Z,34.53
2019-04-10T00:12:00.989Z,36.40
2019-04-10T00:17:05.092Z,36.73
2019-04-10T00:22:09.702Z,32.78
2019-04-10T00:27:14.545Z,34.83
2019-04-10T00:32:18.216Z,31.37
2019-04-10T00:37:26.758Z,37.78
2019-04-10T00:42:27.491Z,39.20
2019-04-10T00:47:31.329Z,33.90
2019-04-10T00:52:34.904Z,33.02
2019-04-10T00:57:39.314Z,34.85
2019-04-10T01:02:43.301Z,32.80
2019-04-10T01:07:48.481Z,34.55
2019-04-10T01:12:54.451Z,30.52
2019-04-10T01:17:59.002Z,33.53
2019-04-10T01:23:03.589Z,33.83
2019-04-10T01:28:07.276Z,31.95
2019-04-10T01:33:10.925Z,31.15
2019-04-10T01:38:15.484Z,33.35
2019-04-10T01:43:20.016Z,28.60
2019-04-10T01:48:25.874Z,33.23
2019-04-10T01:53:30.039Z,34.45
2019-04-10T01:58:33.685Z,37.08
2019-04-10T02:03:38.212Z,30.50
2019-04-10T02:08:42.333Z,32.70
2019-04-10T02:13:46.254Z,32.85
2019-04-10T02:18:49.996Z,33.95
2019-04-10T02:23:54.515Z,29.35
2019-04-10T02:28:59.497Z,31.70
2019-04-10T02:34:04.809Z,33.30
2019-04-10T02:39:23.077Z,33.23
2019-04-10T02:44:16.220Z,29.77
2019-04-10T02:49:20.352Z,28.25
2019-04-10T02:54:25.135Z,31.77
2019-04-10T02:59:29.254Z,31.40
2019-04-10T03:04:33.152Z,33.98
2019-04-10T03:09:53.291Z,32.55
2019-04-10T03:14:45.165Z,31.85
2019-04-10T03:19:47.430Z,31.05
2019-04-10T03:24:51.025Z,32.38
2019-04-10T03:29:54.662Z,34.20
2019-04-10T03:35:08.580Z,32.20
2019-04-10T03:40:13.280Z,38.83
2019-04-10T03:45:16.873Z,32.75
2019-04-10T03:50:20.448Z,31.52
2019-04-10T03:55:25.136Z,33.18
2019-04-10T04:00:29.772Z,39.95
2019-04-10T04:05:34.977Z,32.28
2019-04-10T04:10:38.865Z,35.25
2019-04-10T04:15:42.472Z,40.35
2019-04-10T04:20:46.036Z,43.42
2019-04-10T04:25:50.411Z,38.50
2019-04-10T04:30:54.120Z,39.45
2019-04-10T04:35:57.732Z,40.73
2019-04-10T04:41:08.996Z,39.15
2019-04-10T04:46:14.148Z,38.50
2019-04-10T04:51:19.700Z,35.50
2019-04-10T04:56:23.998Z,36.68
2019-04-10T05:01:27.912Z,40.25
2019-04-10T05:06:31.475Z,34.78
2019-04-10T05:11:36.322Z,34.08
2019-04-10T05:16:41.568Z,39.80
2019-04-10T05:21:45.653Z,35.68
2019-04-10T05:26:49.482Z,34.40
2019-04-10T05:31:53.207Z,31.48
2019-04-10T05:36:57.068Z,37.00
2019-04-10T05:42:02.340Z,34.25
2019-04-10T05:47:05.874Z,24.15
2019-04-10T05:52:10.400Z,32.55
2019-04-10T05:57:14.349Z,30.65
2019-04-10T06:02:17.960Z,28.57
2019-04-10T06:07:21.536Z,30.43
2019-04-10T06:12:26.398Z,30.00
2019-04-10T06:17:30.299Z,31.20
2019-04-10T06:22:34.751Z,29.70
2019-04-10T06:27:38.884Z,25.40
2019-04-10T06:32:43.204Z,29.40
2019-04-10T06:37:46.943Z,27.73
2019-04-10T06:42:53.469Z,32.08
2019-04-10T06:47:55.970Z,32.58
2019-04-10T06:52:59.545Z,29.45
2019-04-10T06:58:03.121Z,28.70
2019-04-10T07:03:08.506Z,22.73
2019-04-10T07:08:17.217Z,29.82
2019-04-10T07:13:17.667Z,26.27
2019-04-10T07:18:21.998Z,24.32
2019-04-10T07:23:28.760Z,21.85
2019-04-10T07:28:30.928Z,22.05
2019-04-10T07:33:34.955Z,31.90
2019-04-10T07:38:39.292Z,27.60
2019-04-10T07:43:44.784Z,27.10
2019-04-10T07:48:48.613Z,26.73
2019-04-10T07:53:52.360Z,26.40
2019-04-10T07:58:56.084Z,28.10
2019-04-10T08:03:59.781Z,26.45
2019-04-10T08:09:05.087Z,24.65
2019-04-10T08:14:08.858Z,22.42
2019-04-10T08:19:12.723Z,24.37
2019-04-10T08:24:16.666Z,23.07
2019-04-10T08:29:20.233Z,28.17
2019-04-10T08:34:23.895Z,27.52
2019-04-10T08:39:36.861Z,21.75
2019-04-10T08:44:33.009Z,28.40
2019-04-10T08:49:36.812Z,25.80
2019-04-10T08:54:40.534Z,26.50
2019-04-10T08:59:46.816Z,25.27
2019-04-10T09:04:49.972Z,23.62
2019-04-10T09:09:54.169Z,24.35
2019-04-10T09:14:57.847Z,29.05
2019-04-10T09:20:02.566Z,24.10
2019-04-10T09:25:07.492Z,27.13
2019-04-10T09:30:11.464Z,29.55
2019-04-10T09:35:16.335Z,21.65
2019-04-10T09:40:20.508Z,34.50
2019-04-10T09:45:25.162Z,28.12
2019-04-10T09:50:31.062Z,20.75
2019-04-10T09:55:36.195Z,20.27
2019-04-10T10:00:40.252Z,23.80
2019-04-10T10:05:44.626Z,26.90
2019-04-10T10:10:49.898Z,32.55
2019-04-10T10:15:54.525Z,26.12
2019-04-10T10:20:59.769Z,32.95
2019-04-10T10:26:03.793Z,34.35
2019-04-10T10:31:08.175Z,20.40
2019-04-10T10:36:11.809Z,33.70
2019-04-10T10:41:15.463Z,28.32
2019-04-10T10:46:19.701Z,20.08
2019-04-10T10:51:23.506Z,19.75
2019-04-10T10:56:27.077Z,27.48
2019-04-10T11:01:31.671Z,25.82
2019-04-10T11:06:48.912Z,19.92
2019-04-10T11:11:41.004Z,21.17
2019-04-10T11:16:45.484Z,23.45
2019-04-10T11:21:49.670Z,21.62
2019-04-10T11:26:54.042Z,19.27
2019-04-10T11:31:58.119Z,24.25
2019-04-10T11:42:09.498Z,22.82
2019-04-10T11:47:12.708Z,20.95
2019-04-10T11:52:19.088Z,23.10
2019-04-10T11:57:22.862Z,27.17
2019-04-10T12:02:28.259Z,21.23
2019-04-10T12:12:37.584Z,25.77
2019-04-10T12:17:42.933Z,24.25
2019-04-10T12:22:46.731Z,29.12
2019-04-10T12:27:51.603Z,17.73
2019-04-10T12:32:55.486Z,22.02
2019-04-10T12:38:02.988Z,18.80
2019-04-10T12:43:06.835Z,21.82
2019-04-10T12:48:10.552Z,20.37
2019-04-10T12:53:14.206Z,24.82
2019-04-10T12:58:19.248Z,17.90
2019-04-10T13:03:23.307Z,19.73
2019-04-10T13:08:47.237Z,16.67
2019-04-10T13:13:33.834Z,19.62
2019-04-10T13:18:38.540Z,20.40
2019-04-10T13:23:42.521Z,16.70
2019-04-10T13:28:46.100Z,15.38
2019-04-10T13:33:50.978Z,18.20
2019-04-10T13:38:54.867Z,15.23
2019-04-10T13:43:58.482Z,17.57
2019-04-10T13:49:02.083Z,21.87
2019-04-10T13:54:06.241Z,22.77
2019-04-10T13:59:10.953Z,19.77
2019-04-10T14:04:14.783Z,19.27
2019-04-10T14:09:34.855Z,32.90
2019-04-10T14:19:31.892Z,20.02
2019-04-10T14:24:42.771Z,23.20
2019-04-10T14:29:41.156Z,20.95
2019-04-10T14:34:44.944Z,19.70
2019-04-10T14:39:49.385Z,20.85
2019-04-10T14:44:53.167Z,20.65
2019-04-10T14:49:57.947Z,20.60
2019-04-10T14:55:02.075Z,18.02
2019-04-10T15:00:12.682Z,13.98
2019-04-10T15:05:17.331Z,19.12
2019-04-10T15:10:21.920Z,19.80
2019-04-10T15:15:26.005Z,19.30
2019-04-10T15:20:29.868Z,20.92
2019-04-10T15:25:33.798Z,21.77
2019-04-10T15:30:37.358Z,21.40
2019-04-10T15:35:41.795Z,25.75
2019-04-10T15:40:46.177Z,22.90
2019-04-10T15:45:50.441Z,22.48
2019-04-10T15:50:54.195Z,21.42
2019-04-10T15:55:57.869Z,28.90
2019-04-10T16:01:02.445Z,24.52
2019-04-10T16:06:06.447Z,20.77
2019-04-10T16:11:28.399Z,26.85
2019-04-10T16:16:36.972Z,22.02
2019-04-10T16:21:41.476Z,25.40
2019-04-10T16:26:45.415Z,26.48
2019-04-10T16:31:53.109Z,27.90
2019-04-10T16:37:00.103Z,32.95
2019-04-10T16:42:06.418Z,22.35
2019-04-10T16:47:12.115Z,27.65
2019-04-10T16:52:16.835Z,24.80
2019-04-10T16:57:20.715Z,29.18
2019-04-10T17:02:24.456Z,29.45
2019-04-10T17:07:28.034Z,25.88
2019-04-10T17:12:31.714Z,26.75
2019-04-10T17:17:42.270Z,22.42
2019-04-10T17:22:49.162Z,28.17
2019-04-10T17:27:52.059Z,22.05
2019-04-10T17:32:56.374Z,22.48
2019-04-10T17:38:00.262Z,35.20
2019-04-10T17:43:05.943Z,30.10
2019-04-10T17:48:09.719Z,27.93
2019-04-10T17:53:14.805Z,28.83
2019-04-10T17:58:19.203Z,29.20
2019-04-10T18:03:23.553Z,26.25
2019-04-10T18:08:29.741Z,31.77
2019-04-10T18:13:32.338Z,29.48
2019-04-10T18:18:35.956Z,33.23
2019-04-10T18:23:39.799Z,35.88
2019-04-10T18:28:44.081Z,33.25
2019-04-10T18:33:48.875Z,33.88
2019-04-10T18:38:52.895Z,38.05
2019-04-10T18:43:57.003Z,35.70
2019-04-10T18:49:00.559Z,33.40
2019-04-10T18:54:04.333Z,38.35
2019-04-10T18:59:13.009Z,34.48
2019-04-10T19:04:22.362Z,35.23
2019-04-10T19:09:28.676Z,37.17
2019-04-10T19:14:36.166Z,38.60
2019-04-10T19:19:40.362Z,35.35
2019-04-10T19:24:44.172Z,32.38
2019-04-10T19:29:48.727Z,37.05
2019-04-10T19:34:52.552Z,35.65
2019-04-10T19:39:56.565Z,34.88
2019-04-10T19:45:01.641Z,35.03
2019-04-10T19:50:06.216Z,33.95
2019-04-10T19:55:09.976Z,32.03
2019-04-10T20:00:14.538Z,34.27
2019-04-10T20:05:18.486Z,28.35
2019-04-10T20:10:22.055Z,27.20
2019-04-10T20:15:26.633Z,27.52
2019-04-10T20:20:31.115Z,37.60
2019-04-10T20:25:34.776Z,29.63
2019-04-10T20:30:38.463Z,33.60
2019-04-10T20:35:42.536Z,36.20
2019-04-10T20:40:46.399Z,34.30
2019-04-10T20:45:50.354Z,37.75
2019-04-10T20:50:54.873Z,38.95
2019-04-10T20:55:58.508Z,38.73
2019-04-10T21:01:02.250Z,36.10
2019-04-10T21:06:06.922Z,39.80
2019-04-10T21:11:11.625Z,39.40
2019-04-10T21:16:15.662Z,37.45
2019-04-10T21:21:19.337Z,39.73
2019-04-10T21:26:23.935Z,34.00
2019-04-10T21:31:29.187Z,37.17
2019-04-10T21:36:34.953Z,39.53
2019-04-10T21:41:39.024Z,35.48
2019-04-10T21:46:43.013Z,40.58
2019-04-10T21:51:46.603Z,36.83
2019-04-10T21:56:51.405Z,37.00
2019-04-10T22:01:55.511Z,41.70
2019-04-10T22:07:16.753Z,36.73
2019-04-10T22:12:28.588Z,37.58
2019-04-10T22:17:27.245Z,33.65
2019-04-10T22:22:30.987Z,34.08
2019-04-10T22:27:35.838Z,29.35
2019-04-10T22:32:40.692Z,31.80
2019-04-10T22:37:44.565Z,32.60
2019-04-10T22:42:49.595Z,28.70
2019-04-10T22:47:54.237Z,34.45
2019-04-10T22:52:59.107Z,31.97
2019-04-10T22:58:03.010Z,29.52
2019-04-10T23:03:06.592Z,27.45
2019-04-10T23:08:11.449Z,29.80
2019-04-10T23:13:18.053Z,26.02
2019-04-10T23:18:21.959Z,24.43
2019-04-10T23:23:25.682Z,23.38
2019-04-10T23:28:29.474Z,24.23
2019-04-10T23:33:34.478Z,27.60
2019-04-10T23:38:38.232Z,24.40
2019-04-10T23:43:42.206Z,27.45
2019-04-10T23:48:46.770Z,21.15
2019-04-10T23:53:50.935Z,25.68
2019-04-10T23:58:54.681Z,21.62
